Time;durP1;ratioP1;P1;durP2;ratioP2;P2;SDS_P1;SDS_P2;PMS_P1;PMS_P2;Temp;Humidity;BMP_temperature;BMP_pressure;BME280_temperature;BME280_humidity;BME280_pressure;Samples;Min_cycle;Max_cycle;Signal;HPM_P1;HPM_P2
2023/09/23 00:01:57;;;;;;;2.60;2.10;;;;;;;16.30;73.88;99682.66;109044;1264;22102;-76
2023/09/23 00:04:37;;;;;;;4.70;2.50;;;;;;;16.29;73.89;99682.89;108933;1275;21977;-76
2023/09/23 00:07:21;;;;;;;2.70;2.10;;;;;;;16.29;74.00;99682.23;108765;1279;23067;-76
2023/09/23 00:10:08;;;;;;;3.60;2.80;;;;;;;16.29;74.07;99677.98;108885;1275;21989;-76
2023/09/23 00:12:42;;;;;;;4.50;2.80;;;;;;;16.25;74.02;99674.13;108812;1279;23099;-78
2023/09/23 00:15:34;;;;;;;3.00;2.10;;;;;;;16.28;74.07;99693.71;108735;1279;22007;-77
2023/09/23 00:18:08;;;;;;;2.70;2.30;;;;;;;16.26;74.04;99700.50;108995;1275;23167;-77
2023/09/23 00:20:53;;;;;;;2.80;2.40;;;;;;;16.24;74.00;99705.19;109062;1276;23313;-76
2023/09/23 00:23:34;;;;;;;2.70;2.40;;;;;;;16.22;73.91;99706.43;108978;1276;23660;-77
2023/09/23 00:26:17;;;;;;;2.50;2.30;;;;;;;16.20;73.97;99704.07;109166;1273;21981;-77
2023/09/23 00:28:52;;;;;;;5.50;2.90;;;;;;;16.20;74.03;99700.20;109238;1273;21982;-78
2023/09/23 00:31:25;;;;;;;3.10;2.50;;;;;;;16.20;74.01;99699.20;109294;1270;22344;-78
2023/09/23 00:34:04;;;;;;;5.00;2.90;;;;;;;16.20;74.11;99696.37;108909;1275;21988;-78
2023/09/23 00:36:40;;;;;;;3.20;2.60;;;;;;;16.21;74.13;99691.77;108847;1275;23615;-77
2023/09/23 00:39:14;;;;;;;5.10;3.10;;;;;;;16.22;74.16;99684.64;108675;1274;22723;-78
2023/09/23 00:41:55;;;;;;;4.20;3.60;;;;;;;16.23;74.21;99688.43;109180;1274;23721;-78
2023/09/23 00:44:28;;;;;;;5.40;4.10;;;;;;;16.22;74.40;99695.33;108888;1278;23069;-77
2023/09/23 00:47:04;;;;;;;4.00;3.70;;;;;;;16.21;74.35;99696.30;108739;1278;22895;-77
2023/09/23 00:49:53;;;;;;;4.60;4.20;;;;;;;16.18;74.22;99699.30;108505;1279;21991;-79
2023/09/23 00:52:33;;;;;;;5.70;4.90;;;;;;;16.19;74.41;99701.70;108733;1278;23723;-77
2023/09/23 00:55:05;;;;;;;6.30;5.30;;;;;;;16.22;74.55;99694.88;108445;1281;21992;-78
2023/09/23 00:58:00;;;;;;;6.60;6.00;;;;;;;16.16;74.48;99687.55;108601;1276;23085;-76
2023/09/23 01:00:36;;;;;;;;;;;;;;;16.23;74.45;99708.12;108529;1281;23042;-78
2023/09/23 01:03:15;;;;;;;7.00;6.40;;;;;;;16.15;74.76;99711.86;108957;1275;21982;-77
2023/09/23 01:06:05;;;;;;;6.30;5.70;;;;;;;16.14;74.87;99713.64;109113;1272;24455;-77
2023/09/23 01:08:54;;;;;;;6.20;5.70;;;;;;;16.16;74.75;99712.26;109127;1274;22020;-77
2023/09/23 01:11:26;;;;;;;6.30;5.70;;;;;;;16.17;74.73;99709.25;109086;1274;23049;-78
2023/09/23 01:14:03;;;;;;;6.80;5.90;;;;;;;16.21;74.81;99717.04;109295;1271;21976;-76
2023/09/23 01:16:42;;;;;;;7.10;6.40;;;;;;;16.19;74.68;99715.05;109002;1275;23397;-79
2023/09/23 01:19:20;;;;;;;8.00;7.30;;;;;;;16.20;74.72;99708.50;108781;1279;21986;-76
2023/09/23 01:22:23;;;;;;;6.70;6.10;;;;;;;16.18;74.64;99706.50;108351;1284;22089;-76
2023/09/23 01:25:06;;;;;;;7.60;6.60;;;;;;;16.17;74.84;99715.23;108424;1279;23654;-76
2023/09/23 01:27:39;;;;;;;8.90;7.60;;;;;;;16.17;74.87;99720.27;108968;1275;23732;-77
2023/09/23 01:30:20;;;;;;;;;;;;;;;;;;;;;
2023/09/23 01:33:00;;;;;;;7.40;6.80;;;;;;;16.20;75.03;99715.16;109025;1276;24198;-79
2023/09/23 01:35:36;;;;;;;8.30;7.60;;;;;;;16.23;75.10;99711.65;109435;1271;21979;-77
2023/09/23 01:38:19;;;;;;;8.70;7.90;;;;;;;16.25;75.17;99713.42;109339;1270;23787;-78
2023/09/23 01:41:00;;;;;;;9.70;8.90;;;;;;;16.26;75.17;99716.17;109804;1266;23031;-77
2023/09/23 01:43:51;;;;;;;;;;;;;;;16.27;75.13;99718.15;109982;1266;23803;-77
2023/09/23 01:46:25;;;;;;;8.50;7.80;;;;;;;16.20;75.34;99720.27;109973;1266;23720;-78
2023/09/23 01:49:07;;;;;;;12.70;8.30;;;;;;;16.22;75.23;99720.09;110111;1259;21993;-78
2023/09/23 01:51:41;;;;;;;9.70;8.80;;;;;;;16.23;75.20;99715.66;109911;1265;21980;-78
2023/09/23 01:54:19;;;;;;;9.00;8.30;;;;;;;16.25;75.04;99719.38;110081;1265;21978;-76
2023/09/23 01:57:03;;;;;;;9.10;8.30;;;;;;;16.25;74.99;99720.05;110394;1258;21966;-77
2023/09/23 01:59:40;;;;;;;8.50;7.80;;;;;;;16.25;74.99;99704.45;110669;1258;22432;-76
2023/09/23 02:02:31;;;;;;;9.40;8.50;;;;;;;16.26;74.98;99698.94;110007;1266;22103;-77
2023/09/23 02:05:07;;;;;;;8.40;7.70;;;;;;;16.27;75.06;99701.30;110056;1259;22830;-77
2023/09/23 02:07:45;;;;;;;9.20;8.30;;;;;;;16.28;74.95;99700.51;109546;1270;24374;-77
2023/09/23 02:10:31;;;;;;;8.20;7.50;;;;;;;16.28;74.95;99702.35;109474;1270;22740;-77
2023/09/23 02:13:02;;;;;;;8.20;7.40;;;;;;;16.27;74.78;99710.29;109379;1270;22068;-76
2023/09/23 02:15:36;;;;;;;7.30;6.60;;;;;;;16.26;74.81;99717.05;109661;1270;23769;-77
2023/09/23 02:18:26;;;;;;;7.30;6.60;;;;;;;16.24;74.75;99724.52;109334;1270;22147;-76
2023/09/23 02:21:12;;;;;;;7.30;6.70;;;;;;;16.19;74.70;99745.05;109797;1265;21994;-77
2023/09/23 02:23:45;;;;;;;8.20;6.90;;;;;;;16.17;74.67;99753.45;110315;1265;21989;-77
2023/09/23 02:26:17;;;;;;;9.50;8.60;;;;;;;16.18;74.78;99740.41;110397;1258;22186;-77
2023/09/23 02:28:48;;;;;;;10.70;8.70;;;;;;;16.18;74.76;99733.89;110686;1257;23803;-76
2023/09/23 02:31:19;;;;;;;10.60;9.60;;;;;;;16.18;74.75;99732.16;110780;1258;21957;-77
2023/09/23 02:34:28;;;;;;;9.70;8.80;;;;;;;16.14;74.82;99743.14;110611;1259;23583;-77
2023/09/23 02:37:05;;;;;;;10.00;8.30;;;;;;;16.13;74.88;99754.44;110424;1264;21954;-76
2023/09/23 02:39:44;;;;;;;9.00;8.20;;;;;;;16.13;74.77;99755.15;109322;1270;22041;-78
2023/09/23 02:42:15;;;;;;;9.40;8.50;;;;;;;16.11;74.70;99751.45;109567;1270;22083;-77
2023/09/23 02:44:46;;;;;;;8.30;7.40;;;;;;;16.10;74.90;99740.63;109711;1269;23717;-77
2023/09/23 02:47:16;;;;;;;9.00;8.10;;;;;;;16.11;75.01;99733.02;109557;1269;23049;-78
2023/09/23 02:49:49;;;;;;;7.50;6.80;;;;;;;16.10;74.86;99723.39;109613;1270;22711;-78
2023/09/23 02:52:25;;;;;;;8.60;7.90;;;;;;;16.10;74.97;99715.56;109511;1270;22307;-76
2023/09/23 02:54:59;;;;;;;7.50;6.90;;;;;;;16.10;75.06;99723.60;109534;1264;21959;-78
2023/09/23 02:57:36;;;;;;;8.20;7.50;;;;;;;16.10;75.04;99723.97;110590;1265;22013;-78
2023/09/23 03:00:29;;;;;;;8.60;7.90;;;;;;;16.09;75.03;99729.31;110076;1252;23873;-78
2023/09/23 03:03:27;;;;;;;9.10;8.30;;;;;;;16.06;75.19;99737.05;110016;1267;23647;-78
2023/09/23 03:06:14;;;;;;;8.60;7.70;;;;;;;16.06;75.30;99738.98;110369;1262;21962;-78
2023/09/23 03:08:53;;;;;;;8.20;7.50;;;;;;;16.08;75.36;99743.24;109973;1268;22006;-78
2023/09/23 03:11:38;;;;;;;9.10;8.40;;;;;;;16.09;75.44;99740.67;109651;1255;21968;-77
2023/09/23 03:14:22;;;;;;;8.40;7.70;;;;;;;16.09;75.43;99747.70;109916;1268;23037;-77
2023/09/23 03:17:12;;;;;;;9.00;8.30;;;;;;;16.08;75.33;99750.92;109627;1268;22053;-77
2023/09/23 03:19:52;;;;;;;10.20;9.40;;;;;;;16.09;75.41;99758.41;109077;1274;23663;-77
2023/09/23 03:22:52;;;;;;;9.70;8.90;;;;;;;16.09;75.50;99758.23;109328;1270;22421;-76
2023/09/23 03:25:41;;;;;;;10.60;9.70;;;;;;;16.09;75.34;99755.11;109593;1270;21984;-77
2023/09/23 03:28:22;;;;;;;11.50;10.30;;;;;;;16.06;75.24;99761.23;108983;1274;22014;-76
2023/09/23 03:31:03;;;;;;;12.60;11.50;;;;;;;16.06;75.22;99782.14;108551;1281;22004;-76
2023/09/23 03:33:49;;;;;;;15.00;13.80;;;;;;;16.07;75.33;99795.28;108662;1277;22069;-77
2023/09/23 03:36:42;;;;;;;14.10;12.90;;;;;;;16.07;75.23;99797.53;108898;1277;21995;-77
2023/09/23 03:39:17;;;;;;;16.60;15.20;;;;;;;16.07;75.43;99799.95;109004;1273;22036;-76
2023/09/23 03:42:18;;;;;;;17.00;15.80;;;;;;;16.06;75.43;99795.64;108995;1273;22064;-77
2023/09/23 03:44:53;;;;;;;17.70;16.20;;;;;;;16.07;75.53;99791.05;109024;1273;21977;-77
2023/09/23 03:47:37;;;;;;;17.20;15.80;;;;;;;16.06;75.51;99790.90;109648;1268;23844;-78
2023/09/23 03:50:15;;;;;;;18.10;16.70;;;;;;;16.07;75.53;99801.18;110255;1262;21988;-77
2023/09/23 03:52:55;;;;;;;20.30;18.40;;;;;;;16.08;75.55;99812.02;110376;1262;22729;-78
2023/09/23 03:55:38;;;;;;;18.00;16.40;;;;;;;16.08;75.60;99823.96;110343;1263;22008;-77
2023/09/23 03:58:50;;;;;;;19.70;17.90;;;;;;;16.07;75.70;99832.43;110614;1259;24333;-77
2023/09/23 04:01:28;;;;;;;17.70;16.40;;;;;;;16.09;75.79;99833.21;110591;1259;23742;-77
2023/09/23 04:03:59;;;;;;;18.30;16.90;;;;;;;16.10;75.70;99833.81;110592;1259;23585;-77
2023/09/23 04:06:34;;;;;;;17.10;15.70;;;;;;;16.11;75.77;99835.34;110794;1259;23029;-77
2023/09/23 04:09:10;;;;;;;16.20;14.90;;;;;;;16.11;75.77;99833.08;110640;1259;23583;-78
2023/09/23 04:12:01;;;;;;;17.70;16.20;;;;;;;16.09;75.78;99831.82;110365;1265;21980;-78
2023/09/23 04:14:32;;;;;;;24.00;21.70;;;;;;;16.08;75.82;99827.27;109730;1270;22785;-77
2023/09/23 04:17:09;;;;;;;27.60;25.30;;;;;;;16.09;75.85;99832.49;109200;1274;22736;-78
2023/09/23 04:19:57;;;;;;;19.30;17.50;;;;;;;16.06;75.77;99831.27;108874;1278;21985;-80
2023/09/23 04:22:38;;;;;;;14.70;13.60;;;;;;;16.05;75.69;99830.66;108930;1281;21991;-80
2023/09/23 04:25:23;;;;;;;16.00;14.50;;;;;;;16.03;75.81;99842.56;108400;1284;22006;-80
2023/09/23 04:28:12;;;;;;;15.60;13.50;;;;;;;16.02;75.86;99859.66;108443;1280;22596;-79
2023/09/23 04:30:58;;;;;;;15.00;13.50;;;;;;;16.00;75.91;99863.42;108696;1282;23098;-80
2023/09/23 04:33:38;;;;;;;14.90;13.60;;;;;;;16.01;75.97;99861.60;108975;1278;21998;-79
2023/09/23 04:36:13;;;;;;;13.60;12.60;;;;;;;16.01;75.97;99859.48;109166;1273;22050;-79
2023/09/23 04:39:17;;;;;;;13.70;12.70;;;;;;;16.02;76.01;99851.39;109456;1272;23659;-78
2023/09/23 04:42:02;;;;;;;14.80;13.60;;;;;;;16.01;76.12;99856.54;109988;1268;22438;-80
2023/09/23 04:44:37;;;;;;;14.40;13.40;;;;;;;16.00;75.89;99868.04;110382;1262;23618;-79
2023/09/23 04:47:19;;;;;;;14.50;13.40;;;;;;;15.98;75.90;99873.23;109980;1268;21965;-79
2023/09/23 04:50:04;;;;;;;;;;;;;;;15.95;75.95;99879.95;109750;1268;21967;-79
2023/09/23 04:52:42;;;;;;;16.50;15.20;;;;;;;15.82;76.24;99889.38;109772;1268;23641;-78
2023/09/23 04:55:21;;;;;;;15.50;14.40;;;;;;;15.81;76.28;99897.93;109032;1273;21990;-78
2023/09/23 04:57:55;;;;;;;16.10;14.50;;;;;;;15.81;76.31;99895.77;109223;1270;23124;-78
2023/09/23 05:00:34;;;;;;;15.70;14.50;;;;;;;15.83;76.32;99892.47;109414;1270;22013;-79
2023/09/23 05:03:33;;;;;;;;;;;;;;;;;;;;;
2023/09/23 05:06:11;;;;;;;15.60;14.00;;;;;;;15.84;76.26;99884.23;109901;1265;21950;-79
2023/09/23 05:08:44;;;;;;;17.60;16.10;;;;;;;15.86;76.32;99881.80;109995;1265;21998;-79
2023/09/23 05:11:28;;;;;;;15.70;14.40;;;;;;;15.87;76.35;99876.11;109726;1265;21970;-80
2023/09/23 05:14:25;;;;;;;19.60;16.10;;;;;;;15.87;76.51;99881.36;110911;1257;22054;-79
2023/09/23 05:17:08;;;;;;;18.50;15.90;;;;;;;15.91;76.60;99896.50;110651;1257;22405;-79
2023/09/23 05:20:15;;;;;;;18.70;16.10;;;;;;;15.91;76.63;99898.59;109680;1264;22752;-78
2023/09/23 05:23:23;;;;;;;17.90;16.30;;;;;;;15.95;76.69;99912.93;110037;1261;22428;-78
2023/09/23 05:26:12;;;;;;;18.30;16.80;;;;;;;15.99;76.70;99923.02;110139;1264;21987;-82
2023/09/23 05:28:50;;;;;;;18.40;16.80;;;;;;;16.03;76.78;99938.01;110150;1264;22414;-76
2023/09/23 05:31:37;;;;;;;;;;;;;;;;;;;;;
2023/09/23 05:34:23;;;;;;;20.20;18.50;;;;;;;16.14;76.96;99951.52;110145;1264;23707;-76
2023/09/23 05:37:16;;;;;;;19.00;17.40;;;;;;;16.23;77.01;99950.74;109501;1263;22029;-78
2023/09/23 05:40:38;;;;;;;19.80;18.20;;;;;;;16.26;76.67;99960.50;109737;1268;23749;-78
2023/09/23 05:43:03;;;;;;;;;;;;;;;16.31;76.66;99955.10;109442;1268;23627;-78
2023/09/23 05:45:40;;;;;;;22.70;20.70;;;;;;;16.28;76.76;99938.80;110065;1264;22727;-78
2023/09/23 05:48:21;;;;;;;20.70;18.80;;;;;;;16.33;76.77;99935.83;109400;1268;22969;-78
2023/09/23 05:51:17;;;;;;;22.90;21.10;;;;;;;16.41;76.72;99940.70;109769;1268;22165;-81
2023/09/23 05:54:32;;;;;;;22.10;20.40;;;;;;;16.50;76.56;99944.69;109413;1273;22027;-78
2023/09/23 05:57:34;;;;;;;21.50;19.50;;;;;;;16.55;76.21;99939.05;109889;1268;23621;-78
2023/09/23 06:00:25;;;;;;;19.40;17.70;;;;;;;16.65;76.18;99918.34;109172;1273;22746;-78
2023/09/23 06:03:05;;;;;;;18.40;16.70;;;;;;;16.74;76.18;99911.55;109088;1273;23714;-78
2023/09/23 06:05:59;;;;;;;18.30;16.80;;;;;;;16.84;75.80;99919.66;109670;1268;22054;-81
2023/09/23 06:10:07;;;;;;;17.90;16.20;;;;;;;16.81;75.14;99927.25;109880;1268;22012;-80
2023/09/23 06:13:11;;;;;;;16.90;15.30;;;;;;;16.88;75.31;99927.25;109403;1270;21973;-78
2023/09/23 06:16:37;;;;;;;17.90;16.40;;;;;;;17.05;75.56;99924.51;109295;1270;21978;-80
2023/09/23 06:20:15;;;;;;;15.10;13.90;;;;;;;17.19;75.00;99941.45;109623;1270;22189;-78
2023/09/23 06:23:26;;;;;;;12.60;11.30;;;;;;;17.27;74.31;99947.70;108698;1280;22476;-77
2023/09/23 06:26:10;;;;;;;12.50;11.60;;;;;;;17.28;73.51;99948.36;108432;1284;21978;-77
2023/09/23 06:28:53;;;;;;;13.20;11.90;;;;;;;17.27;72.77;99968.34;108318;1284;21989;-81
2023/09/23 06:31:51;;;;;;;11.70;10.70;;;;;;;17.17;72.66;99965.55;108604;1283;22027;-78
2023/09/23 06:34:39;;;;;;;11.90;10.80;;;;;;;17.28;72.75;99984.73;108549;1283;22652;-80
2023/09/23 06:37:31;;;;;;;10.10;9.10;;;;;;;17.29;72.06;100000.52;108644;1283;21991;-77
2023/09/23 06:40:22;;;;;;;9.70;8.70;;;;;;;17.24;71.50;100018.96;108525;1281;22985;-80
2023/09/23 06:43:11;;;;;;;8.70;7.90;;;;;;;17.16;71.04;100037.50;108945;1277;22011;-80
2023/09/23 06:46:16;;;;;;;8.50;7.60;;;;;;;17.07;71.04;100060.78;108813;1281;22032;-79
2023/09/23 06:49:03;;;;;;;9.10;8.20;;;;;;;17.04;70.96;100081.54;108703;1281;21883;-79
2023/09/23 06:52:08;;;;;;;9.30;8.40;;;;;;;17.03;71.04;100090.95;108634;1281;23738;-80
2023/09/23 06:55:27;;;;;;;12.00;10.20;;;;;;;17.13;71.80;100051.52;108696;1280;22992;-80
2023/09/23 07:01:38;;;;;;;8.60;7.90;;;;;;;17.29;71.06;100001.70;109184;1273;22003;-80
2023/09/23 07:04:52;;;;;;;10.50;8.30;;;;;;;17.40;71.36;99985.85;109361;1274;21987;-81
2023/09/23 07:07:51;;;;;;;8.30;6.90;;;;;;;17.57;71.35;99997.31;109475;1274;21984;-82
2023/09/23 07:11:04;;;;;;;7.60;6.20;;;;;;;17.77;71.30;100014.31;109052;1274;22038;-78
2023/09/23 07:14:06;;;;;;;6.30;5.70;;;;;;;17.96;70.93;100019.96;108406;1281;22016;-76
2023/09/23 07:17:06;;;;;;;;;;;;;;;18.17;70.11;100026.38;108595;1283;22557;-80
2023/09/23 07:19:57;;;;;;;6.40;5.00;;;;;;;18.23;69.57;100033.44;108478;1283;21964;-77
2023/09/23 07:23:09;;;;;;;9.70;5.60;;;;;;;18.50;69.57;100050.62;108734;1272;22017;-79
2023/09/23 07:27:14;;;;;;;;;;;;;;;;;;;;;
2023/09/23 07:30:32;;;;;;;5.80;4.70;;;;;;;19.26;68.18;100069.88;108417;1291;22015;-79
2023/09/23 07:33:16;;;;;;;5.60;4.00;;;;;;;19.61;66.44;100072.05;107960;1292;22018;-81
2023/09/23 07:36:47;;;;;;;4.80;3.70;;;;;;;20.02;65.45;100083.96;108103;1292;22003;-80
2023/09/23 07:40:48;;;;;;;5.10;3.80;;;;;;;20.26;63.59;100085.67;107569;1296;22002;-81
2023/09/23 07:43:39;;;;;;;5.70;3.20;;;;;;;20.30;61.97;100076.88;108069;1291;22004;-80
2023/09/23 07:47:32;;;;;;;3.60;2.80;;;;;;;20.48;61.94;100071.52;108269;1290;22040;-78
2023/09/23 07:50:28;;;;;;;6.30;4.00;;;;;;;20.68;60.73;100069.74;107995;1288;22013;-81
2023/09/23 07:53:59;;;;;;;5.50;3.00;;;;;;;20.70;59.67;100071.13;108282;1288;22737;-85
2023/09/23 07:57:04;;;;;;;8.50;3.30;;;;;;;20.66;59.10;100072.27;107911;1292;22972;-81
2023/09/23 08:00:25;;;;;;;;;;;;;;;;;;;;;
2023/09/23 08:03:36;;;;;;;;;;;;;;;;;;;;;
2023/09/23 08:06:47;;;;;;;3.50;2.60;;;;;;;20.36;58.73;100091.77;108007;1285;23737;-82
2023/09/23 08:09:29;;;;;;;6.00;2.10;;;;;;;20.24;58.36;100104.05;108246;1289;23092;-77
2023/09/23 08:12:39;;;;;;;4.90;2.50;;;;;;;20.16;58.63;100106.52;107958;1289;22060;-77
2023/09/23 08:15:45;;;;;;;7.80;2.60;;;;;;;20.10;58.99;100104.69;107768;1295;22031;-81
2023/09/23 08:18:39;;;;;;;3.40;2.40;;;;;;;20.06;59.31;100094.80;108034;1289;22013;-80
2023/09/23 08:21:22;;;;;;;4.70;3.30;;;;;;;20.14;59.22;100106.16;108524;1283;22069;-79
2023/09/23 08:28:19;;;;;;;;;;;;;;;;;;;;;
2023/09/23 08:31:25;;;;;;;4.30;2.80;;;;;;;20.28;59.05;100121.77;108429;1288;22005;-79
2023/09/23 08:34:12;;;;;;;4.10;2.40;;;;;;;20.39;58.99;100121.70;108290;1276;23063;-80
2023/09/23 08:36:49;;;;;;;2.80;2.60;;;;;;;20.51;58.23;100124.33;108078;1280;22008;-77
2023/09/23 08:39:42;;;;;;;3.80;2.70;;;;;;;20.60;58.35;100125.34;108464;1279;22002;-78
2023/09/23 08:42:48;;;;;;;;;;;;;;;;;;;;;
2023/09/23 08:46:11;;;;;;;4.70;3.50;;;;;;;20.79;57.28;100129.56;109171;1274;22018;-80
2023/09/23 08:49:49;;;;;;;;;;;;;;;;;;;;;
2023/09/23 08:57:07;;;;;;;;;;;;;;;;;;;;;
2023/09/23 09:00:13;;;;;;;5.80;2.80;;;;;;;20.57;57.18;100127.48;108517;1283;22148;-79
2023/09/23 09:03:04;;;;;;;;;;;;;;;;;;;;;
2023/09/23 09:06:21;;;;;;;5.30;2.90;;;;;;;20.53;57.14;100135.73;108946;1277;21996;-81
2023/09/23 09:09:40;;;;;;;5.30;2.80;;;;;;;20.43;57.03;100137.11;108310;1288;22217;-82
2023/09/23 09:12:57;;;;;;;;;;;;;;;;;;;;;
2023/09/23 09:16:12;;;;;;;;;;;;;;;;;;;;;
2023/09/23 09:27:07;;;;;;;5.10;3.80;;;;;;;20.06;58.45;100155.70;108118;1279;22003;-83
2023/09/23 09:31:08;;;;;;;4.70;3.20;;;;;;;20.20;58.55;100149.29;107935;1293;23750;-81
2023/09/23 09:36:06;;;;;;;;;;;;;;;;;;;;;
2023/09/23 09:58:52;;;;;;;;;;;;;;;;;;;;;
2023/09/23 10:02:26;;;;;;;5.30;3.20;;;;;;;23.29;48.45;100146.55;108057;1232;7220540;-80
2023/09/23 10:05:40;;;;;;;6.60;5.90;;;;;;;23.00;49.58;100154.77;113043;1238;22321;-83
2023/09/23 10:08:57;;;;;;;7.70;3.60;;;;;;;22.98;50.44;100162.95;112964;1238;22319;-81
2023/09/23 10:11:41;;;;;;;4.00;3.00;;;;;;;23.00;49.81;100169.36;113240;1238;23772;-80
2023/09/23 10:14:31;;;;;;;4.60;4.20;;;;;;;22.88;49.68;100173.45;113161;1238;22465;-82
2023/09/23 10:17:31;;;;;;;5.70;3.90;;;;;;;22.72;49.91;100169.05;113303;1238;21941;-83
2023/09/23 10:21:05;;;;;;;9.30;3.40;;;;;;;22.50;50.19;100154.91;113336;1238;21959;-79
2023/09/23 10:24:35;;;;;;;4.80;2.80;;;;;;;22.61;50.96;100170.95;113190;1238;22071;-81
2023/09/23 10:27:36;;;;;;;3.90;2.70;;;;;;;22.68;49.90;100168.90;112648;1238;22023;-82
2023/09/23 10:31:13;;;;;;;3.10;2.30;;;;;;;22.51;49.43;100166.36;112460;1242;21966;-82
2023/09/23 10:33:54;;;;;;;5.30;2.70;;;;;;;22.36;49.64;100162.36;112181;1243;21982;-78
2023/09/23 10:37:06;;;;;;;3.00;2.60;;;;;;;22.39;49.78;100167.92;112321;1242;21951;-80
2023/09/23 10:40:14;;;;;;;3.10;2.50;;;;;;;22.35;49.74;100176.29;111835;1247;22027;-78
2023/09/23 10:43:04;;;;;;;;;;;;;;;;;;;;;
2023/09/23 10:45:48;;;;;;;4.70;4.10;;;;;;;22.25;49.12;100167.81;112080;1247;21957;-81
2023/09/23 10:48:52;;;;;;;4.70;3.70;;;;;;;22.02;49.11;100169.59;111946;1242;21912;-80
2023/09/23 10:51:45;;;;;;;7.40;3.00;;;;;;;21.75;49.26;100172.67;112346;1242;23723;-79
2023/09/23 10:54:30;;;;;;;4.50;2.50;;;;;;;21.53;49.75;100182.08;112221;1242;23571;-80
2023/09/23 10:57:33;;;;;;;4.00;3.00;;;;;;;21.28;50.09;100182.05;112621;1238;21984;-80
2023/09/23 11:00:48;;;;;;;3.60;2.50;;;;;;;21.08;50.84;100179.88;113068;1232;21931;-80
2023/09/23 11:03:43;;;;;;;8.20;2.70;;;;;;;20.96;51.19;100176.40;112983;1237;23696;-80
2023/09/23 11:06:54;;;;;;;3.50;2.40;;;;;;;20.95;51.30;100182.18;112616;1240;21971;-79
2023/09/23 11:09:45;;;;;;;3.90;3.50;;;;;;;20.78;51.14;100180.63;112129;1245;23581;-79
2023/09/23 11:12:37;;;;;;;3.20;2.90;;;;;;;20.69;51.71;100179.74;112300;1245;21947;-80
2023/09/23 11:15:41;;;;;;;6.40;3.10;;;;;;;20.62;51.94;100184.16;111478;1252;23551;-80
2023/09/23 11:18:39;;;;;;;5.00;2.70;;;;;;;20.57;52.50;100184.23;111546;1251;22012;-80
2023/09/23 11:21:31;;;;;;;2.70;2.50;;;;;;;20.60;52.67;100184.00;111578;1247;21961;-81
2023/09/23 11:24:50;;;;;;;4.10;2.60;;;;;;;20.63;52.65;100187.65;112025;1247;22868;-81
2023/09/23 11:27:54;;;;;;;2.80;2.50;;;;;;;20.72;52.95;100194.77;111431;1251;21970;-81
2023/09/23 11:30:59;;;;;;;9.50;2.60;;;;;;;20.79;52.28;100197.28;111371;1253;21992;-82
2023/09/23 11:33:33;;;;;;;5.90;2.80;;;;;;;20.86;52.46;100196.23;111859;1244;22521;-81
2023/09/23 11:36:11;;;;;;;3.80;2.50;;;;;;;20.96;52.59;100201.15;112116;1248;21977;-81
2023/09/23 11:38:55;;;;;;;2.80;2.50;;;;;;;21.08;52.44;100196.12;112763;1233;21999;-82
2023/09/23 11:41:43;;;;;;;3.30;2.30;;;;;;;21.20;52.43;100197.21;112555;1242;22742;-80
2023/09/23 11:44:14;;;;;;;5.50;2.20;;;;;;;21.27;52.08;100195.38;112779;1242;22124;-82
2023/09/23 11:46:52;;;;;;;4.60;2.70;;;;;;;21.25;51.56;100195.05;112938;1237;23597;-83
2023/09/23 11:49:37;;;;;;;3.40;2.70;;;;;;;21.27;51.57;100197.04;112706;1237;22684;-82
2023/09/23 11:52:35;;;;;;;;;;;;;;;;;;;;;
2023/09/23 11:55:46;;;;;;;3.80;2.20;;;;;;;21.19;50.72;100198.73;113588;1232;22684;-84
2023/09/23 11:58:25;;;;;;;3.90;2.90;;;;;;;21.16;50.85;100200.98;112747;1242;21998;-82
2023/09/23 12:01:29;;;;;;;3.00;1.90;;;;;;;21.14;50.93;100204.98;112517;1243;22440;-81
2023/09/23 12:04:10;;;;;;;2.80;2.40;;;;;;;21.15;51.24;100206.54;112326;1243;23071;-81
2023/09/23 12:06:46;;;;;;;5.50;3.20;;;;;;;21.19;51.35;100210.80;112499;1243;21956;-80
2023/09/23 12:09:37;;;;;;;2.60;2.30;;;;;;;21.21;51.29;100210.08;112588;1243;21976;-82
2023/09/23 12:12:52;;;;;;;3.50;2.60;;;;;;;21.23;51.36;100210.60;112699;1243;21939;-82
2023/09/23 12:15:46;;;;;;;4.00;2.40;;;;;;;21.22;51.18;100217.27;112604;1243;21987;-83
2023/09/23 12:18:36;;;;;;;3.10;2.10;;;;;;;21.27;51.32;100217.73;112756;1243;22698;-81
2023/09/23 12:21:19;;;;;;;5.10;2.70;;;;;;;21.30;50.89;100226.63;112498;1242;23016;-81
2023/09/23 12:23:59;;;;;;;5.50;2.80;;;;;;;21.25;50.50;100237.16;112613;1242;21967;-81
2023/09/23 12:26:34;;;;;;;5.10;3.20;;;;;;;21.12;50.54;100232.61;112564;1242;21969;-82
2023/09/23 12:29:23;;;;;;;2.70;2.40;;;;;;;21.04;50.89;100232.20;112252;1243;22461;-80
2023/09/23 12:32:11;;;;;;;5.00;2.10;;;;;;;21.02;51.32;100237.13;111997;1249;23700;-82
2023/09/23 12:35:06;;;;;;;4.00;2.30;;;;;;;21.04;51.48;100237.14;111958;1249;21965;-83
2023/09/23 12:37:45;;;;;;;4.30;2.10;;;;;;;21.06;51.23;100234.52;112541;1243;22035;-83
2023/09/23 12:40:19;;;;;;;4.40;2.60;;;;;;;21.05;50.95;100231.38;112587;1243;21967;-82
2023/09/23 12:43:06;;;;;;;4.70;2.20;;;;;;;21.01;50.92;100235.45;112427;1239;23523;-81
2023/09/23 12:45:43;;;;;;;4.50;2.10;;;;;;;20.97;50.78;100236.81;112399;1243;21973;-81
2023/09/23 12:48:47;;;;;;;2.40;1.90;;;;;;;20.91;50.81;100240.52;112992;1237;21946;-82
2023/09/23 12:51:29;;;;;;;2.90;2.00;;;;;;;20.88;50.98;100245.40;113548;1236;21944;-83
2023/09/23 12:54:11;;;;;;;2.10;1.90;;;;;;;20.88;51.07;100248.01;113434;1236;21969;-81
2023/09/23 12:56:54;;;;;;;5.10;2.30;;;;;;;20.83;51.03;100237.84;112591;1244;22135;-81
2023/09/23 12:59:33;;;;;;;3.50;2.30;;;;;;;20.89;51.12;100244.58;111979;1248;23024;-80
2023/09/23 13:02:16;;;;;;;4.70;2.20;;;;;;;20.91;51.19;100246.18;111942;1248;21997;-83
2023/09/23 13:04:50;;;;;;;3.20;2.60;;;;;;;20.90;50.99;100243.83;111573;1253;21973;-81
2023/09/23 13:07:27;;;;;;;4.00;2.30;;;;;;;20.82;50.86;100239.50;111635;1253;21994;-81
2023/09/23 13:10:16;;;;;;;3.70;2.20;;;;;;;20.75;50.76;100243.77;111767;1250;21986;-81
2023/09/23 13:12:47;;;;;;;;;;;;;;;20.67;50.84;100240.34;111898;1250;22349;-82
2023/09/23 13:15:58;;;;;;;2.70;1.90;;;;;;;20.47;51.14;100245.32;111556;1254;22750;-84
2023/09/23 13:18:48;;;;;;;3.30;2.20;;;;;;;20.39;51.09;100256.08;111700;1250;21982;-81
2023/09/23 13:21:40;;;;;;;;;;;;;;;20.32;51.30;100267.21;112298;1242;21979;-81
2023/09/23 13:24:38;;;;;;;;;;;;;;;;;;;;;
2023/09/23 13:27:52;;;;;;;3.30;2.60;;;;;;;20.29;51.68;100272.38;112808;1242;22108;-82
2023/09/23 13:30:39;;;;;;;4.80;2.20;;;;;;;20.32;51.35;100266.48;112864;1242;22353;-81
2023/09/23 13:34:07;;;;;;;3.90;1.60;;;;;;;20.32;51.31;100271.24;113072;1238;23695;-83
2023/09/23 13:37:12;;;;;;;8.60;2.10;;;;;;;20.29;50.99;100284.94;113241;1238;21966;-82
2023/09/23 13:40:03;;;;;;;3.00;1.80;;;;;;;20.15;50.72;100292.56;113065;1238;22014;-80
2023/09/23 13:42:54;;;;;;;;;;;;;;;;;;;;;
2023/09/23 13:45:32;;;;;;;2.50;1.30;;;;;;;20.09;51.04;100296.08;112408;1238;22042;-79
2023/09/23 13:48:13;;;;;;;3.10;1.90;;;;;;;20.07;51.05;100298.52;112105;1242;23600;-81
2023/09/23 13:50:58;;;;;;;3.30;2.40;;;;;;;20.07;50.99;100303.50;112191;1242;22036;-77
2023/09/23 13:54:08;;;;;;;2.50;1.90;;;;;;;20.04;50.84;100306.86;112148;1242;22121;-79
2023/09/23 13:57:12;;;;;;;2.80;1.60;;;;;;;19.96;50.92;100303.11;112243;1234;23027;-78
2023/09/23 14:00:34;;;;;;;;;;;;;;;;;;;;;
2023/09/23 14:04:11;;;;;;;2.70;2.10;;;;;;;19.93;51.33;100289.38;112884;1237;23601;-78
2023/09/23 14:07:08;;;;;;;4.40;1.80;;;;;;;19.92;51.19;100285.93;112647;1239;23601;-77
2023/09/23 14:09:55;;;;;;;2.90;2.10;;;;;;;19.86;51.03;100287.39;112514;1239;22863;-78
2023/09/23 14:13:29;;;;;;;4.20;1.40;;;;;;;19.85;51.41;100290.48;112366;1243;22140;-78
2023/09/23 14:16:12;;;;;;;2.20;1.90;;;;;;;19.92;51.34;100299.38;111694;1249;21962;-75
2023/09/23 14:19:26;;;;;;;3.40;2.10;;;;;;;19.90;51.09;100301.56;111499;1249;23041;-79
2023/09/23 14:22:43;;;;;;;12.30;1.90;;;;;;;19.91;51.14;100302.39;111677;1249;22008;-77
2023/09/23 14:25:54;;;;;;;37.70;4.10;;;;;;;19.93;51.01;100303.84;110985;1251;23636;-78